Time;durP1;ratioP1;P1;durP2;ratioP2;P2;SDS_P1;SDS_P2;PMS_P1;PMS_P2;Temp;Humidity;BMP_temperature;BMP_pressure;BME280_temperature;BME280_humidity;BME280_pressure;Samples;Min_cycle;Max_cycle;Signal;HPM_P1;HPM_P2
2024/01/01 00:35:18;;;;;;;39.60;27.70;;;;;;;5.55;100.00;100825.10;107682;1286;544202;-61
2024/01/01 00:37:43;;;;;;;53.30;38.80;;;;;;;7.36;100.00;100809.55;108095;1275;23096;-59
2024/01/01 00:40:09;;;;;;;45.70;31.40;;;;;;;7.73;100.00;100804.94;108110;1281;21983;-58
2024/01/01 00:42:35;;;;;;;40.40;26.20;;;;;;;7.89;99.78;100800.32;108149;1287;21982;-61
2024/01/01 00:45:00;;;;;;;31.60;21.70;;;;;;;7.95;97.98;100795.98;108113;1286;22107;-62
2024/01/01 00:47:26;;;;;;;27.20;19.00;;;;;;;7.98;96.53;100793.20;108111;1277;22005;-59
2024/01/01 00:49:51;;;;;;;23.90;18.00;;;;;;;8.00;95.25;100787.61;107985;1284;23058;-58
2024/01/01 00:52:17;;;;;;;24.40;17.40;;;;;;;8.00;94.24;100785.34;108211;1284;21983;-58
2024/01/01 00:54:43;;;;;;;21.90;16.40;;;;;;;8.02;93.58;100781.86;108188;1284;21986;-62
2024/01/01 00:57:08;;;;;;;23.50;16.60;;;;;;;8.03;93.42;100782.56;108182;1273;21994;-58
2024/01/01 00:59:34;;;;;;;29.70;22.20;;;;;;;8.06;92.85;100781.54;108235;1284;21989;-60
2024/01/01 01:01:59;;;;;;;26.10;18.10;;;;;;;8.08;92.75;100781.19;108238;1280;21988;-62
2024/01/01 01:04:25;;;;;;;23.60;17.30;;;;;;;8.09;92.77;100776.46;108324;1278;21986;-59
2024/01/01 01:06:52;;;;;;;24.40;17.60;;;;;;;8.09;92.87;100776.13;108178;1274;21986;-62
2024/01/01 01:09:18;;;;;;;24.40;17.40;;;;;;;8.10;92.50;100775.77;108027;1285;21998;-62
2024/01/01 01:11:43;;;;;;;25.10;16.70;;;;;;;8.13;92.37;100774.74;108015;1285;21992;-59
2024/01/01 01:14:09;;;;;;;25.20;17.50;;;;;;;8.16;92.09;100773.52;108086;1274;21988;-59
2024/01/01 01:16:35;;;;;;;25.30;16.40;;;;;;;8.16;91.95;100768.81;108182;1285;21980;-63
2024/01/01 01:19:00;;;;;;;23.70;16.10;;;;;;;8.16;91.48;100762.86;108221;1274;21972;-60
2024/01/01 01:21:26;;;;;;;24.60;17.20;;;;;;;8.14;91.24;100764.27;108342;1278;21991;-62
2024/01/01 01:23:51;;;;;;;22.40;14.90;;;;;;;8.11;90.87;100764.95;108321;1285;21984;-59
2024/01/01 01:26:20;;;;;;;21.60;13.70;;;;;;;8.08;90.44;100763.19;108238;1274;21983;-62
2024/01/01 01:28:48;;;;;;;19.90;13.40;;;;;;;8.02;89.78;100756.52;108227;1280;21988;-62
2024/01/01 01:31:14;;;;;;;18.90;12.20;;;;;;;7.95;89.16;100755.96;108152;1285;21991;-62
2024/01/01 01:33:39;;;;;;;18.60;14.30;;;;;;;7.86;88.51;100752.44;108081;1280;21980;-60
2024/01/01 01:36:06;;;;;;;17.00;11.80;;;;;;;7.81;88.29;100756.41;108087;1285;22495;-62
2024/01/01 01:38:35;;;;;;;17.80;12.60;;;;;;;7.74;88.49;100757.44;108128;1280;21989;-59
2024/01/01 01:41:01;;;;;;;18.90;13.50;;;;;;;7.70;88.77;100754.80;108166;1274;21994;-63
2024/01/01 01:43:27;;;;;;;21.60;15.40;;;;;;;7.70;90.36;100752.88;108219;1285;23194;-59
2024/01/01 01:45:53;;;;;;;21.50;14.80;;;;;;;7.75;91.17;100748.88;108086;1280;22024;-61
2024/01/01 01:48:18;;;;;;;22.00;15.10;;;;;;;7.84;91.45;100747.69;108136;1280;21993;-63
2024/01/01 01:50:45;;;;;;;24.60;15.20;;;;;;;7.94;91.62;100745.64;108125;1284;22131;-58
2024/01/01 01:53:12;;;;;;;22.30;14.30;;;;;;;7.98;91.69;100736.92;108081;1282;21984;-59
2024/01/01 01:55:40;;;;;;;20.90;14.20;;;;;;;7.99;92.08;100731.70;108148;1285;21982;-59
2024/01/01 01:58:06;;;;;;;18.40;13.50;;;;;;;8.00;92.72;100730.47;108135;1285;21984;-61
2024/01/01 02:00:31;;;;;;;17.10;12.70;;;;;;;7.99;92.14;100726.26;108111;1285;21982;-63
2024/01/01 02:02:57;;;;;;;15.80;10.60;;;;;;;7.94;91.06;100723.63;108034;1274;21997;-62
2024/01/01 02:05:22;;;;;;;15.10;10.50;;;;;;;7.90;90.18;100723.44;108160;1285;22020;-59
2024/01/01 02:07:48;;;;;;;13.50;9.30;;;;;;;7.83;89.77;100721.14;108060;1274;21983;-59
2024/01/01 02:10:13;;;;;;;11.40;8.60;;;;;;;7.75;89.82;100720.05;108131;1274;21983;-59
2024/01/01 02:12:39;;;;;;;13.60;9.60;;;;;;;7.71;89.22;100716.20;108077;1285;23445;-58
2024/01/01 02:15:05;;;;;;;13.80;10.20;;;;;;;7.70;89.39;100712.70;108213;1280;21992;-59
2024/01/01 02:17:31;;;;;;;15.30;9.10;;;;;;;7.72;89.55;100706.77;108080;1285;21981;-63
2024/01/01 02:19:57;;;;;;;13.20;9.10;;;;;;;7.72;89.26;100708.52;108123;1285;21989;-60
2024/01/01 02:22:22;;;;;;;12.70;8.70;;;;;;;7.71;88.61;100702.21;108106;1280;21987;-59
2024/01/01 02:24:48;;;;;;;12.20;8.00;;;;;;;7.71;88.21;100701.34;108106;1285;21989;-63
2024/01/01 02:27:13;;;;;;;11.60;8.50;;;;;;;7.71;87.90;100700.65;108034;1283;21986;-59
2024/01/01 02:29:39;;;;;;;11.80;8.30;;;;;;;7.70;87.52;100696.27;108056;1285;22002;-59
2024/01/01 02:32:05;;;;;;;11.80;8.10;;;;;;;7.68;87.15;100695.91;108064;1285;21988;-60
2024/01/01 02:34:30;;;;;;;13.60;8.80;;;;;;;7.63;86.69;100695.54;108064;1281;23058;-62
2024/01/01 02:36:56;;;;;;;12.00;8.30;;;;;;;7.59;86.56;100692.20;108176;1285;22028;-62
2024/01/01 02:39:22;;;;;;;14.80;11.10;;;;;;;7.57;86.55;100692.02;108065;1285;22020;-59
2024/01/01 02:41:47;;;;;;;18.90;14.30;;;;;;;7.56;86.51;100693.40;108105;1285;21973;-62
2024/01/01 02:44:13;;;;;;;12.20;9.10;;;;;;;7.53;87.10;100690.60;108057;1281;21984;-61
2024/01/01 02:46:38;;;;;;;13.10;9.20;;;;;;;7.51;87.98;100686.05;107292;1279;1002608;-59
2024/01/01 02:49:04;;;;;;;10.50;7.80;;;;;;;7.49;89.38;100683.95;108090;1274;21990;-59
2024/01/01 02:51:29;;;;;;;10.90;7.50;;;;;;;7.48;90.13;100682.20;108029;1274;21986;-62
2024/01/01 02:53:56;;;;;;;10.20;7.60;;;;;;;7.48;90.66;100682.02;108168;1285;21969;-59
2024/01/01 02:56:25;;;;;;;7.40;5.80;;;;;;;7.50;91.16;100681.34;108177;1275;21988;-63
2024/01/01 02:58:51;;;;;;;6.90;5.40;;;;;;;7.53;91.23;100678.71;108088;1285;22451;-59
2024/01/01 03:01:18;;;;;;;7.20;5.60;;;;;;;7.56;91.27;100674.54;108114;1285;22025;-60
2024/01/01 03:03:44;;;;;;;8.30;5.90;;;;;;;7.59;92.02;100676.14;108077;1285;21993;-60
2024/01/01 03:06:09;;;;;;;7.60;6.00;;;;;;;7.60;92.51;100669.85;108037;1279;21983;-60
2024/01/01 03:08:38;;;;;;;7.80;6.10;;;;;;;7.60;92.21;100665.66;108070;1280;21976;-60
2024/01/01 03:11:07;;;;;;;7.50;6.00;;;;;;;7.59;92.22;100663.39;108077;1281;22930;-64
2024/01/01 03:13:32;;;;;;;8.10;6.10;;;;;;;7.58;92.40;100658.49;108090;1285;21992;-62
2024/01/01 03:15:58;;;;;;;6.70;5.20;;;;;;;7.59;93.28;100656.58;108052;1281;21995;-59
2024/01/01 03:18:24;;;;;;;6.80;5.50;;;;;;;7.59;93.95;100659.36;107996;1284;21986;-59
2024/01/01 03:20:50;;;;;;;6.50;5.00;;;;;;;7.60;93.65;100661.64;108115;1285;21979;-64
2024/01/01 03:23:15;;;;;;;7.20;5.80;;;;;;;7.58;93.04;100654.47;108035;1285;21984;-59
2024/01/01 03:25:41;;;;;;;6.40;5.10;;;;;;;7.57;92.53;100652.73;108002;1284;21985;-59
2024/01/01 03:28:09;;;;;;;6.90;5.30;;;;;;;7.57;92.81;100649.23;108027;1285;22021;-60
2024/01/01 03:30:35;;;;;;;6.70;5.20;;;;;;;7.61;93.41;100644.00;108072;1280;21987;-65
2024/01/01 03:33:02;;;;;;;7.30;5.30;;;;;;;7.67;94.46;100644.56;108074;1280;21984;-60
2024/01/01 03:35:31;;;;;;;6.80;5.30;;;;;;;7.74;95.23;100642.66;108031;1280;21993;-60
2024/01/01 03:38:03;;;;;;;9.00;6.50;;;;;;;7.81;95.97;100644.61;107317;1280;1003059;-60
2024/01/01 03:40:30;;;;;;;8.80;6.50;;;;;;;7.87;97.34;100642.53;108026;1273;21976;-65
2024/01/01 03:42:56;;;;;;;8.20;6.40;;;;;;;7.90;97.24;100641.15;108011;1274;21981;-60
2024/01/01 03:45:21;;;;;;;8.20;6.30;;;;;;;7.91;96.36;100639.92;108074;1285;21991;-65
2024/01/01 03:47:47;;;;;;;7.60;6.10;;;;;;;7.95;95.53;100638.71;108165;1280;21998;-65
2024/01/01 03:50:14;;;;;;;8.20;6.50;;;;;;;7.95;95.77;100639.76;108232;1285;22045;-60
2024/01/01 03:52:40;;;;;;;9.70;6.50;;;;;;;7.96;95.38;100636.77;108043;1285;21968;-65
2024/01/01 03:55:06;;;;;;;8.90;6.80;;;;;;;7.96;95.93;100635.38;108037;1273;23068;-65
2024/01/01 03:57:33;;;;;;;8.60;6.80;;;;;;;7.95;95.74;100634.52;108055;1285;22034;-65
2024/01/01 03:59:59;;;;;;;8.90;6.70;;;;;;;7.96;94.87;100632.59;108053;1281;21993;-60
2024/01/01 04:02:24;;;;;;;9.90;6.40;;;;;;;7.97;94.59;100629.09;108164;1283;21981;-61
2024/01/01 04:04:50;;;;;;;9.90;6.70;;;;;;;7.97;94.75;100624.73;108391;1280;21988;-60
2024/01/01 04:07:18;;;;;;;10.00;7.00;;;;;;;7.97;95.04;100625.08;108057;1274;21988;-67
2024/01/01 04:09:44;;;;;;;11.00;7.70;;;;;;;7.97;95.58;100623.86;108023;1285;21996;-62
2024/01/01 04:12:09;;;;;;;10.20;6.70;;;;;;;7.97;95.70;100623.51;107999;1272;21995;-67
2024/01/01 04:14:35;;;;;;;8.50;6.30;;;;;;;7.95;96.03;100615.46;108037;1281;21994;-68
2024/01/01 04:17:03;;;;;;;8.80;6.50;;;;;;;7.92;96.51;100612.14;108030;1285;22056;-67
2024/01/01 04:19:29;;;;;;;7.80;5.80;;;;;;;7.92;96.39;100615.30;108010;1281;21996;-61
2024/01/01 04:21:57;;;;;;;10.10;6.90;;;;;;;7.93;96.05;100609.52;108046;1285;21990;-67
2024/01/01 04:24:23;;;;;;;8.70;6.50;;;;;;;7.96;96.12;100612.50;108053;1284;21983;-67
2024/01/01 04:26:48;;;;;;;9.30;7.00;;;;;;;8.00;97.08;100611.81;108039;1285;21983;-67
2024/01/01 04:29:16;;;;;;;9.70;6.70;;;;;;;8.06;97.04;100614.44;108005;1286;21991;-61
2024/01/01 04:31:44;;;;;;;10.70;7.60;;;;;;;8.10;97.33;100612.18;108027;1273;22037;-60
2024/01/01 04:34:09;;;;;;;10.90;8.00;;;;;;;8.14;97.20;100612.71;108050;1280;22040;-67
2024/01/01 04:36:35;;;;;;;10.40;7.80;;;;;;;8.18;97.06;100607.30;108027;1285;23736;-67
2024/01/01 04:39:03;;;;;;;13.30;8.70;;;;;;;8.23;96.86;100603.29;108028;1284;23647;-60
2024/01/01 04:41:30;;;;;;;11.90;8.60;;;;;;;8.28;96.89;100602.23;108065;1280;22051;-60
2024/01/01 04:43:55;;;;;;;12.50;8.90;;;;;;;8.31;97.72;100602.23;108027;1285;21983;-60
2024/01/01 04:46:21;;;;;;;12.00;8.90;;;;;;;8.35;97.81;100601.02;108070;1286;22263;-67
2024/01/01 04:48:46;;;;;;;12.40;8.40;;;;;;;8.40;97.63;100593.84;108031;1286;22001;-61
2024/01/01 04:51:12;;;;;;;13.60;9.00;;;;;;;8.44;97.70;100594.54;108178;1286;21988;-67
2024/01/01 04:53:38;;;;;;;11.70;8.10;;;;;;;8.48;98.86;100591.92;108311;1284;21994;-67
2024/01/01 04:56:05;;;;;;;12.10;8.40;;;;;;;8.52;99.68;100589.68;108184;1286;21997;-61
2024/01/01 04:58:31;;;;;;;11.90;8.60;;;;;;;8.57;99.53;100586.01;108281;1286;21995;-67
2024/01/01 05:00:57;;;;;;;12.50;8.90;;;;;;;8.61;99.31;100587.05;108210;1273;23533;-60
2024/01/01 05:03:23;;;;;;;15.00;9.60;;;;;;;8.65;99.79;100581.27;108079;1285;21994;-68
2024/01/01 05:05:48;;;;;;;13.30;9.80;;;;;;;8.73;100.00;100581.44;108220;1286;21984;-67
2024/01/01 05:08:14;;;;;;;14.50;10.00;;;;;;;8.85;100.00;100580.88;108275;1286;21991;-61
2024/01/01 05:10:40;;;;;;;13.80;9.60;;;;;;;8.96;100.00;100571.05;108114;1273;21982;-60
2024/01/01 05:13:07;;;;;;;13.70;9.40;;;;;;;9.09;100.00;100570.16;108242;1286;21989;-68
2024/01/01 05:15:33;;;;;;;14.30;9.40;;;;;;;9.21;100.00;100570.46;108358;1284;21983;-61
2024/01/01 05:17:58;;;;;;;14.50;10.20;;;;;;;9.29;100.00;100566.59;108198;1274;21987;-68
2024/01/01 05:20:25;;;;;;;13.30;9.30;;;;;;;9.36;100.00;100567.42;108168;1286;22029;-67
2024/01/01 05:22:51;;;;;;;14.50;10.30;;;;;;;9.42;100.00;100556.73;108296;1286;21984;-61
2024/01/01 05:25:16;;;;;;;14.40;9.70;;;;;;;9.47;100.00;100547.95;108118;1285;21983;-61
2024/01/01 05:27:42;;;;;;;15.50;11.40;;;;;;;9.52;100.00;100543.35;108357;1280;21982;-69
2024/01/01 05:30:09;;;;;;;18.40;12.90;;;;;;;9.59;100.00;100538.94;108185;1284;22858;-68
2024/01/01 05:32:34;;;;;;;24.50;16.10;;;;;;;9.65;100.00;100536.28;108291;1285;23129;-67
2024/01/01 05:35:00;;;;;;;24.30;17.70;;;;;;;9.73;100.00;100535.35;108112;1285;21980;-68
2024/01/01 05:37:26;;;;;;;22.20;14.50;;;;;;;9.78;100.00;100534.27;108138;1274;22451;-67
2024/01/01 05:39:51;;;;;;;23.30;15.20;;;;;;;9.83;100.00;100534.60;108159;1285;21992;-61
2024/01/01 05:42:18;;;;;;;22.40;14.50;;;;;;;9.88;100.00;100532.28;108118;1280;21971;-66
2024/01/01 05:44:44;;;;;;;23.20;15.20;;;;;;;9.94;100.00;100525.91;108067;1284;21983;-68
2024/01/01 05:47:10;;;;;;;21.40;13.80;;;;;;;9.99;100.00;100518.17;108141;1285;21986;-68
2024/01/01 05:49:35;;;;;;;24.60;15.80;;;;;;;10.07;100.00;100518.30;108131;1285;21983;-67
2024/01/01 05:52:02;;;;;;;25.70;16.30;;;;;;;10.15;100.00;100519.63;108126;1285;21998;-68
2024/01/01 05:54:28;;;;;;;24.20;15.60;;;;;;;10.21;100.00;100523.79;108100;1285;21990;-68
2024/01/01 05:56:53;;;;;;;25.20;16.60;;;;;;;10.27;100.00;100523.55;108144;1285;21985;-67
2024/01/01 05:59:19;;;;;;;25.40;16.90;;;;;;;10.33;100.00;100524.56;108108;1285;21992;-66
2024/01/01 06:01:45;;;;;;;29.30;17.80;;;;;;;10.38;100.00;100525.40;108078;1285;21989;-67
2024/01/01 06:04:10;;;;;;;27.50;18.30;;;;;;;10.42;100.00;100522.75;108267;1278;21982;-62
2024/01/01 06:06:36;;;;;;;30.60;19.30;;;;;;;10.46;100.00;100522.73;108161;1280;22923;-67
2024/01/01 06:09:02;;;;;;;33.90;21.00;;;;;;;10.53;100.00;100521.26;108082;1285;21976;-66
2024/01/01 06:11:28;;;;;;;30.50;18.70;;;;;;;10.59;100.00;100519.43;108094;1272;21953;-67
2024/01/01 06:13:54;;;;;;;30.30;19.70;;;;;;;10.64;100.00;100514.30;108177;1281;21986;-68
2024/01/01 06:16:20;;;;;;;33.70;20.90;;;;;;;10.66;100.00;100512.16;108278;1278;22024;-66
2024/01/01 06:18:46;;;;;;;32.70;21.70;;;;;;;10.72;100.00;100509.82;108096;1285;22021;-62
2024/01/01 06:21:11;;;;;;;33.70;22.10;;;;;;;10.77;100.00;100511.52;108041;1281;21994;-62
2024/01/01 06:23:39;;;;;;;32.50;22.80;;;;;;;10.79;100.00;100512.02;108073;1274;22444;-62
2024/01/01 06:26:05;;;;;;;36.40;23.30;;;;;;;10.84;100.00;100513.37;108084;1285;22043;-62
2024/01/01 06:28:34;;;;;;;47.10;28.90;;;;;;;10.88;100.00;100510.34;108249;1283;21994;-67
2024/01/01 06:31:00;;;;;;;34.00;24.30;;;;;;;10.89;100.00;100508.05;107459;1280;1002324;-61
2024/01/01 06:33:25;;;;;;;34.80;24.20;;;;;;;10.94;100.00;100504.48;108084;1284;21991;-66
2024/01/01 06:35:51;;;;;;;34.60;23.70;;;;;;;10.98;100.00;100498.81;108104;1284;21988;-61
2024/01/01 06:38:17;;;;;;;37.50;24.90;;;;;;;11.03;100.00;100495.24;108068;1285;21979;-65
2024/01/01 06:40:43;;;;;;;38.10;26.50;;;;;;;11.08;100.00;100493.27;108078;1285;22043;-68
2024/01/01 06:43:09;;;;;;;42.30;27.40;;;;;;;11.10;100.00;100490.59;108057;1285;21992;-61
2024/01/01 06:45:34;;;;;;;40.60;26.70;;;;;;;11.12;100.00;100488.46;108073;1285;22176;-62
2024/01/01 06:48:02;;;;;;;43.00;26.90;;;;;;;11.16;100.00;100488.59;108095;1286;21991;-67
2024/01/01 06:50:28;;;;;;;36.80;26.30;;;;;;;11.19;100.00;100484.87;108082;1284;21999;-62
2024/01/01 06:52:54;;;;;;;39.40;27.50;;;;;;;11.23;100.00;100483.41;108078;1286;21989;-62
2024/01/01 06:55:19;;;;;;;34.70;25.00;;;;;;;11.25;100.00;100483.02;108098;1286;22142;-67
2024/01/01 06:57:45;;;;;;;39.60;26.30;;;;;;;11.24;100.00;100480.94;108120;1281;21991;-66
2024/01/01 07:00:11;;;;;;;37.20;24.30;;;;;;;11.24;100.00;100480.06;108078;1281;21991;-67
2024/01/01 07:02:37;;;;;;;36.90;25.20;;;;;;;11.21;100.00;100476.05;108154;1286;21993;-67
2024/01/01 07:05:03;;;;;;;35.60;23.60;;;;;;;11.20;100.00;100478.35;108093;1286;22451;-62
2024/01/01 07:07:28;;;;;;;34.60;23.10;;;;;;;11.19;100.00;100477.66;108112;1286;21989;-67
2024/01/01 07:09:54;;;;;;;35.90;23.00;;;;;;;11.22;100.00;100478.16;108092;1277;22122;-61
2024/01/01 07:12:23;;;;;;;35.60;23.30;;;;;;;11.21;100.00;100473.61;108039;1281;21986;-61
2024/01/01 07:14:49;;;;;;;37.80;24.70;;;;;;;11.22;100.00;100468.66;108206;1284;22345;-61
2024/01/01 07:17:14;;;;;;;36.00;24.00;;;;;;;11.23;100.00;100467.26;108176;1276;23596;-63
2024/01/01 07:19:40;;;;;;;37.30;23.50;;;;;;;11.26;100.00;100470.20;108319;1285;24179;-62
2024/01/01 07:22:06;;;;;;;38.70;26.40;;;;;;;11.28;100.00;100461.20;108016;1274;22025;-66
2024/01/01 07:24:31;;;;;;;40.10;25.80;;;;;;;11.32;100.00;100455.36;108039;1275;22023;-66
2024/01/01 07:26:57;;;;;;;37.60;25.70;;;;;;;11.33;100.00;100453.41;108051;1284;21987;-62
2024/01/01 07:29:23;;;;;;;41.30;28.30;;;;;;;11.33;100.00;100456.56;108021;1285;21991;-62
2024/01/01 07:31:49;;;;;;;39.70;25.80;;;;;;;11.38;100.00;100454.92;108055;1285;21993;-64
2024/01/01 07:34:19;;;;;;;39.50;27.30;;;;;;;11.41;100.00;100457.33;108089;1285;21990;-67
2024/01/01 07:36:44;;;;;;;35.20;24.80;;;;;;;11.44;100.00;100455.88;108012;1285;22002;-67
2024/01/01 07:39:10;;;;;;;35.70;23.60;;;;;;;11.44;100.00;100451.31;108127;1284;21980;-62
2024/01/01 07:41:36;;;;;;;32.30;23.20;;;;;;;11.46;100.00;100452.17;108049;1284;21991;-60
2024/01/01 07:44:01;;;;;;;32.30;23.20;;;;;;;11.50;100.00;100445.59;107279;1285;1002642;-60
2024/01/01 07:46:27;;;;;;;35.40;23.40;;;;;;;11.55;100.00;100441.66;108100;1285;21986;-64
2024/01/01 07:48:53;;;;;;;35.20;23.30;;;;;;;11.59;100.00;100435.80;108212;1286;22001;-65
2024/01/01 07:51:19;;;;;;;31.90;21.60;;;;;;;11.62;100.00;100431.89;108112;1286;21985;-64
2024/01/01 07:53:45;;;;;;;31.10;22.60;;;;;;;11.64;100.00;100428.70;108073;1286;22024;-61
2024/01/01 07:56:10;;;;;;;36.10;22.60;;;;;;;11.69;100.00;100429.67;108128;1286;22022;-65
2024/01/01 07:58:36;;;;;;;37.30;22.60;;;;;;;11.74;100.00;100428.02;108282;1286;21953;-65
2024/01/01 08:01:02;;;;;;;31.70;22.20;;;;;;;11.79;100.00;100427.92;108131;1286;21973;-61
2024/01/01 08:03:28;;;;;;;36.40;23.60;;;;;;;11.86;100.00;100424.13;108083;1286;22008;-65
2024/01/01 08:05:53;;;;;;;31.90;22.30;;;;;;;11.92;100.00;100418.92;108102;1286;21992;-64
2024/01/01 08:08:19;;;;;;;33.20;22.10;;;;;;;11.99;100.00;100419.69;108101;1286;21989;-60
2024/01/01 08:10:44;;;;;;;28.70;21.10;;;;;;;12.07;100.00;100419.56;108182;1282;21986;-64
2024/01/01 08:13:10;;;;;;;30.60;20.80;;;;;;;12.13;100.00;100415.60;108145;1285;22463;-65
2024/01/01 08:15:36;;;;;;;29.30;21.10;;;;;;;12.23;100.00;100414.89;108056;1277;21993;-62
2024/01/01 08:18:02;;;;;;;30.70;20.90;;;;;;;12.33;100.00;100409.27;108140;1281;21988;-65
2024/01/01 08:20:29;;;;;;;31.80;21.50;;;;;;;12.41;100.00;100404.70;108179;1281;22048;-61
2024/01/01 08:22:55;;;;;;;29.70;20.10;;;;;;;12.46;100.00;100402.32;107287;1281;1002415;-64
2024/01/01 08:25:21;;;;;;;32.50;22.70;;;;;;;12.53;100.00;100397.96;108063;1285;21988;-65
2024/01/01 08:27:47;;;;;;;38.50;25.80;;;;;;;12.59;100.00;100398.88;108239;1285;21995;-64
2024/01/01 08:30:13;;;;;;;36.30;24.20;;;;;;;12.64;100.00;100399.30;108296;1281;21990;-64
2024/01/01 08:32:39;;;;;;;34.50;23.00;;;;;;;12.65;100.00;100403.86;108154;1285;24312;-64
2024/01/01 08:35:05;;;;;;;33.20;23.00;;;;;;;12.69;100.00;100405.56;108016;1285;21980;-64
2024/01/01 08:37:30;;;;;;;34.20;24.70;;;;;;;12.70;100.00;100404.99;108091;1285;21986;-61
2024/01/01 08:39:56;;;;;;;30.40;22.00;;;;;;;12.76;100.00;100403.80;108044;1286;21978;-64
2024/01/01 08:42:22;;;;;;;29.80;21.10;;;;;;;12.79;100.00;100398.66;108036;1274;21983;-63
2024/01/01 08:44:47;;;;;;;32.00;21.10;;;;;;;12.82;100.00;100391.19;108092;1285;21985;-64
2024/01/01 08:47:15;;;;;;;32.50;20.00;;;;;;;12.85;100.00;100387.42;107972;1281;21983;-65
2024/01/01 08:49:41;;;;;;;32.90;21.90;;;;;;;12.87;100.00;100386.86;108090;1286;22679;-64
2024/01/01 08:52:07;;;;;;;36.20;24.90;;;;;;;12.85;100.00;100381.98;108108;1279;22036;-62
2024/01/01 08:54:32;;;;;;;34.80;23.60;;;;;;;12.87;100.00;100380.52;108181;1274;22080;-63
2024/01/01 08:56:58;;;;;;;36.40;25.60;;;;;;;12.90;100.00;100376.59;108081;1274;21998;-61
2024/01/01 08:59:24;;;;;;;37.70;26.80;;;;;;;12.92;100.00;100373.00;108079;1283;21991;-61
2024/01/01 09:01:49;;;;;;;31.30;22.70;;;;;;;12.96;100.00;100372.40;108108;1286;21998;-61
2024/01/01 09:04:17;;;;;;;31.10;23.00;;;;;;;13.00;100.00;100376.37;108103;1285;21974;-62
2024/01/01 09:06:43;;;;;;;33.80;23.70;;;;;;;13.04;100.00;100374.16;108144;1285;21988;-64
2024/01/01 09:09:10;;;;;;;34.50;23.30;;;;;;;13.06;100.00;100367.07;108152;1285;21994;-61
2024/01/01 09:11:36;;;;;;;42.60;26.80;;;;;;;13.09;100.00;100363.46;108128;1285;22018;-62
2024/01/01 09:14:02;;;;;;;40.30;23.10;;;;;;;13.11;100.00;100356.56;108166;1281;21995;-62
2024/01/01 09:16:29;;;;;;;39.50;27.00;;;;;;;13.12;100.00;100354.42;108149;1285;21985;-60
2024/01/01 09:18:59;;;;;;;35.00;22.50;;;;;;;13.14;100.00;100349.10;108192;1274;21984;-62
2024/01/01 09:21:26;;;;;;;30.00;21.20;;;;;;;13.17;100.00;100344.10;108106;1276;21966;-62
2024/01/01 09:23:58;;;;;;;33.20;22.80;;;;;;;13.18;100.00;100335.79;108381;1280;21984;-61
2024/01/01 09:26:24;;;;;;;30.30;21.30;;;;;;;13.21;100.00;100327.44;108368;1286;23650;-60
2024/01/01 09:28:50;;;;;;;30.50;20.40;;;;;;;13.24;100.00;100323.13;108173;1286;21991;-60
2024/01/01 09:31:18;;;;;;;33.40;22.10;;;;;;;13.31;100.00;100312.55;108108;1275;21996;-62
2024/01/01 09:33:44;;;;;;;35.20;24.50;;;;;;;13.38;100.00;100297.25;108099;1285;21980;-61
2024/01/01 09:36:12;;;;;;;31.90;23.30;;;;;;;13.45;100.00;100289.33;108109;1284;22155;-61
2024/01/01 09:38:37;;;;;;;35.50;26.90;;;;;;;13.55;100.00;100280.98;108175;1285;21985;-62
2024/01/01 09:41:03;;;;;;;30.30;22.30;;;;;;;13.64;100.00;100274.55;108089;1275;21981;-59
2024/01/01 09:43:28;;;;;;;36.00;26.90;;;;;;;13.75;100.00;100268.98;108117;1282;21983;-63
2024/01/01 09:45:54;;;;;;;31.80;23.80;;;;;;;13.86;100.00;100266.41;108098;1284;23894;-60
2024/01/01 09:48:20;;;;;;;33.50;25.70;;;;;;;13.93;100.00;100257.56;109013;1285;21985;-60
2024/01/01 09:50:48;;;;;;;50.70;36.60;;;;;;;13.98;100.00;100257.08;108129;1285;21984;-63
2024/01/01 09:53:14;;;;;;;29.40;23.10;;;;;;;14.06;100.00;100252.45;108146;1285;22023;-60
2024/01/01 09:55:39;;;;;;;30.20;20.90;;;;;;;14.12;100.00;100244.14;108175;1285;22020;-63
2024/01/01 09:58:05;;;;;;;26.70;20.50;;;;;;;14.15;100.00;100235.58;108101;1274;21981;-60
2024/01/01 10:00:30;;;;;;;28.10;20.10;;;;;;;14.19;100.00;100233.72;108118;1275;21993;-60
2024/01/01 10:03:07;;;;;;;33.70;19.60;;;;;;;14.22;100.00;100227.08;108089;1285;21986;-60
2024/01/01 10:05:32;;;;;;;26.20;19.00;;;;;;;14.29;100.00;100221.92;108104;1284;22045;-60
2024/01/01 10:08:07;;;;;;;28.30;19.90;;;;;;;14.33;100.00;100221.12;108099;1285;21988;-64
2024/01/01 10:10:33;;;;;;;27.90;20.40;;;;;;;14.35;100.00;100219.47;108095;1285;22042;-61
2024/01/01 10:13:08;;;;;;;23.70;17.70;;;;;;;14.37;100.00;100217.80;108080;1281;21995;-63
2024/01/01 10:15:35;;;;;;;23.50;16.90;;;;;;;14.40;100.00;100214.52;108211;1281;21983;-64
2024/01/01 10:18:14;;;;;;;26.30;18.80;;;;;;;14.43;100.00;100211.45;108253;1285;22736;-59
2024/01/01 10:20:40;;;;;;;22.20;17.10;;;;;;;14.48;100.00;100204.44;108107;1275;21994;-60
2024/01/01 10:23:25;;;;;;;24.50;18.50;;;;;;;14.50;100.00;100199.42;108100;1281;21991;-60
2024/01/01 10:26:07;;;;;;;22.30;17.30;;;;;;;14.50;100.00;100195.55;108195;1285;22029;-60
2024/01/01 10:28:33;;;;;;;29.40;20.80;;;;;;;14.52;100.00;100188.92;108184;1281;21989;-61
2024/01/01 10:31:00;;;;;;;24.40;17.70;;;;;;;14.57;100.00;100179.78;108239;1286;21955;-60
2024/01/01 10:33:31;;;;;;;24.50;16.90;;;;;;;14.65;100.00;100168.58;108142;1286;21993;-63
2024/01/01 10:35:59;;;;;;;25.70;18.50;;;;;;;14.79;100.00;100166.19;108077;1285;21997;-62
2024/01/01 10:38:24;;;;;;;22.70;15.50;;;;;;;14.97;100.00;100162.96;108031;1285;22042;-62
2024/01/01 10:40:50;;;;;;;25.80;16.20;;;;;;;15.12;100.00;100160.84;108172;1285;22021;-61
2024/01/01 10:43:18;;;;;;;23.50;14.40;;;;;;;15.16;100.00;100151.89;108174;1285;21985;-60
2024/01/01 10:45:44;;;;;;;22.40;15.70;;;;;;;15.22;100.00;100146.17;108133;1279;23631;-60
2024/01/01 10:48:10;;;;;;;21.50;15.10;;;;;;;15.21;100.00;100141.98;108138;1285;21988;-62
2024/01/01 10:50:37;;;;;;;20.20;14.80;;;;;;;15.12;100.00;100143.35;108186;1285;21984;-61
2024/01/01 10:53:28;;;;;;;18.50;13.50;;;;;;;15.02;100.00;100140.16;108114;1279;21997;-63
2024/01/01 10:56:27;;;;;;;18.60;14.30;;;;;;;14.99;100.00;100130.56;108071;1285;21986;-63
2024/01/01 10:59:12;;;;;;;19.60;13.30;;;;;;;15.01;100.00;100129.08;108234;1281;21997;-60
2024/01/01 11:01:38;;;;;;;19.30;13.80;;;;;;;14.97;100.00;100125.15;108055;1285;21988;-60
2024/01/01 11:04:04;;;;;;;17.60;13.30;;;;;;;14.94;100.00;100122.25;108048;1285;22019;-59
2024/01/01 11:06:38;;;;;;;19.30;12.90;;;;;;;14.91;100.00;100115.47;108130;1285;21989;-60
2024/01/01 11:09:18;;;;;;;18.50;13.80;;;;;;;14.88;100.00;100111.16;108038;1285;23623;-62
2024/01/01 11:11:50;;;;;;;18.10;13.30;;;;;;;14.92;100.00;100103.79;108080;1285;21989;-62
2024/01/01 11:14:30;;;;;;;19.00;13.80;;;;;;;14.91;100.00;100103.11;108109;1285;21987;-60
2024/01/01 11:17:00;;;;;;;18.40;12.90;;;;;;;14.93;100.00;100094.55;108046;1274;21987;-63
2024/01/01 11:19:43;;;;;;;20.30;13.30;;;;;;;14.93;100.00;100091.91;108046;1284;22006;-60
2024/01/01 11:22:39;;;;;;;24.40;13.40;;;;;;;14.91;100.00;100087.22;108033;1285;21990;-62
2024/01/01 11:25:05;;;;;;;21.20;13.70;;;;;;;14.77;100.00;100088.57;108099;1285;22048;-60
2024/01/01 11:27:51;;;;;;;19.00;12.50;;;;;;;14.83;100.00;100081.63;108174;1285;21985;-60
2024/01/01 11:30:19;;;;;;;19.20;13.40;;;;;;;14.87;100.00;100075.66;108242;1285;22070;-61
2024/01/01 11:32:45;;;;;;;15.00;12.00;;;;;;;14.89;100.00;100071.20;108066;1285;21989;-60
2024/01/01 11:35:12;;;;;;;19.30;14.30;;;;;;;14.84;100.00;100074.03;108019;1274;22040;-61
2024/01/01 11:37:42;;;;;;;17.10;11.90;;;;;;;14.64;100.00;100069.02;108065;1281;21993;-63